sensor_id;sensor_type;location;lat;lon;timestamp;P1;durP1;ratioP1;P2;durP2;ratioP2
21810;SDS011;11067;48.788;9.208;2022-07-18T00:01:42;3.83;;;2.70;;
21810;SDS011;11067;48.788;9.208;2022-07-18T00:04:08;3.45;;;2.78;;
21810;SDS011;11067;48.788;9.208;2022-07-18T00:06:33;4.90;;;2.87;;
21810;SDS011;11067;48.788;9.208;2022-07-18T00:09:00;4.17;;;2.97;;
21810;SDS011;11067;48.788;9.208;2022-07-18T00:11:25;3.90;;;3.05;;
21810;SDS011;11067;48.788;9.208;2022-07-18T00:13:51;3.70;;;2.70;;
21810;SDS011;11067;48.788;9.208;2022-07-18T00:16:17;4.32;;;3.05;;
21810;SDS011;11067;48.788;9.208;2022-07-18T00:18:43;5.18;;;2.95;;
21810;SDS011;11067;48.788;9.208;2022-07-18T00:21:09;4.60;;;2.95;;
21810;SDS011;11067;48.788;9.208;2022-07-18T00:23:34;5.80;;;3.45;;
21810;SDS011;11067;48.788;9.208;2022-07-18T00:26:00;6.07;;;3.33;;
21810;SDS011;11067;48.788;9.208;2022-07-18T00:28:26;5.45;;;3.10;;
21810;SDS011;11067;48.788;9.208;2022-07-18T00:30:52;12.10;;;3.35;;
21810;SDS011;11067;48.788;9.208;2022-07-18T00:33:17;4.77;;;3.20;;
21810;SDS011;11067;48.788;9.208;2022-07-18T00:35:43;4.45;;;3.13;;
21810;SDS011;11067;48.788;9.208;2022-07-18T00:38:08;9.47;;;4.30;;
21810;SDS011;11067;48.788;9.208;2022-07-18T00:40:34;6.13;;;3.67;;
21810;SDS011;11067;48.788;9.208;2022-07-18T00:43:00;6.63;;;3.30;;
21810;SDS011;11067;48.788;9.208;2022-07-18T00:45:25;5.57;;;3.60;;
21810;SDS011;11067;48.788;9.208;2022-07-18T00:47:51;4.60;;;3.63;;
21810;SDS011;11067;48.788;9.208;2022-07-18T00:50:20;7.10;;;3.80;;
21810;SDS011;11067;48.788;9.208;2022-07-18T00:52:47;5.80;;;4.40;;
21810;SDS011;11067;48.788;9.208;2022-07-18T00:55:13;7.80;;;4.45;;
21810;SDS011;11067;48.788;9.208;2022-07-18T00:57:39;5.35;;;3.55;;
21810;SDS011;11067;48.788;9.208;2022-07-18T01:00:07;7.00;;;3.65;;
21810;SDS011;11067;48.788;9.208;2022-07-18T01:02:55;4.85;;;3.10;;
21810;SDS011;11067;48.788;9.208;2022-07-18T01:05:21;4.03;;;3.00;;
21810;SDS011;11067;48.788;9.208;2022-07-18T01:07:47;5.30;;;3.00;;
21810;SDS011;11067;48.788;9.208;2022-07-18T01:10:13;3.83;;;2.73;;
21810;SDS011;11067;48.788;9.208;2022-07-18T01:12:38;3.63;;;2.47;;
21810;SDS011;11067;48.788;9.208;2022-07-18T01:15:04;3.83;;;2.23;;
21810;SDS011;11067;48.788;9.208;2022-07-18T01:17:30;3.90;;;2.30;;
21810;SDS011;11067;48.788;9.208;2022-07-18T01:19:56;3.70;;;2.33;;
21810;SDS011;11067;48.788;9.208;2022-07-18T01:22:22;3.35;;;2.25;;
21810;SDS011;11067;48.788;9.208;2022-07-18T01:24:48;4.90;;;2.50;;
21810;SDS011;11067;48.788;9.208;2022-07-18T01:27:15;4.43;;;2.40;;
21810;SDS011;11067;48.788;9.208;2022-07-18T01:29:42;4.20;;;2.40;;
21810;SDS011;11067;48.788;9.208;2022-07-18T01:32:09;3.88;;;2.40;;
21810;SDS011;11067;48.788;9.208;2022-07-18T01:34:35;2.92;;;2.25;;
21810;SDS011;11067;48.788;9.208;2022-07-18T01:37:02;3.17;;;2.08;;
21810;SDS011;11067;48.788;9.208;2022-07-18T01:39:28;3.00;;;2.10;;
21810;SDS011;11067;48.788;9.208;2022-07-18T01:41:54;3.65;;;2.38;;
21810;SDS011;11067;48.788;9.208;2022-07-18T01:44:21;4.55;;;2.40;;
21810;SDS011;11067;48.788;9.208;2022-07-18T01:46:46;5.18;;;2.65;;
21810;SDS011;11067;48.788;9.208;2022-07-18T01:49:12;10.40;;;3.43;;
21810;SDS011;11067;48.788;9.208;2022-07-18T01:51:37;4.95;;;2.75;;
21810;SDS011;11067;48.788;9.208;2022-07-18T01:54:03;8.20;;;3.30;;
21810;SDS011;11067;48.788;9.208;2022-07-18T01:56:28;6.57;;;3.53;;
21810;SDS011;11067;48.788;9.208;2022-07-18T01:58:54;8.43;;;3.00;;
21810;SDS011;11067;48.788;9.208;2022-07-18T02:01:19;5.63;;;3.20;;
21810;SDS011;11067;48.788;9.208;2022-07-18T02:03:45;7.57;;;2.93;;
21810;SDS011;11067;48.788;9.208;2022-07-18T02:06:10;4.95;;;2.90;;
21810;SDS011;11067;48.788;9.208;2022-07-18T02:08:36;4.03;;;2.90;;
21810;SDS011;11067;48.788;9.208;2022-07-18T02:11:02;5.28;;;2.70;;
21810;SDS011;11067;48.788;9.208;2022-07-18T02:13:27;4.50;;;2.73;;
21810;SDS011;11067;48.788;9.208;2022-07-18T02:15:53;7.70;;;2.77;;
21810;SDS011;11067;48.788;9.208;2022-07-18T02:18:21;6.50;;;2.70;;
21810;SDS011;11067;48.788;9.208;2022-07-18T02:20:47;3.60;;;2.35;;
21810;SDS011;11067;48.788;9.208;2022-07-18T02:23:12;4.70;;;2.77;;
21810;SDS011;11067;48.788;9.208;2022-07-18T02:25:38;5.57;;;2.67;;
21810;SDS011;11067;48.788;9.208;2022-07-18T02:28:03;4.77;;;2.97;;
21810;SDS011;11067;48.788;9.208;2022-07-18T02:30:29;4.33;;;2.60;;
21810;SDS011;11067;48.788;9.208;2022-07-18T02:32:55;2.73;;;2.20;;
21810;SDS011;11067;48.788;9.208;2022-07-18T02:35:21;3.67;;;2.43;;
21810;SDS011;11067;48.788;9.208;2022-07-18T02:37:47;2.83;;;2.30;;
21810;SDS011;11067;48.788;9.208;2022-07-18T02:40:12;2.70;;;2.30;;
21810;SDS011;11067;48.788;9.208;2022-07-18T02:42:38;5.07;;;3.00;;
21810;SDS011;11067;48.788;9.208;2022-07-18T02:45:05;4.93;;;2.65;;
21810;SDS011;11067;48.788;9.208;2022-07-18T02:47:31;4.10;;;2.30;;
21810;SDS011;11067;48.788;9.208;2022-07-18T02:49:57;4.97;;;2.50;;
21810;SDS011;11067;48.788;9.208;2022-07-18T02:52:23;5.63;;;2.63;;
21810;SDS011;11067;48.788;9.208;2022-07-18T02:54:48;3.53;;;2.40;;
21810;SDS011;11067;48.788;9.208;2022-07-18T02:57:14;2.87;;;2.50;;
21810;SDS011;11067;48.788;9.208;2022-07-18T02:59:40;3.08;;;2.30;;
21810;SDS011;11067;48.788;9.208;2022-07-18T03:02:05;4.23;;;2.40;;
21810;SDS011;11067;48.788;9.208;2022-07-18T03:04:31;3.45;;;2.55;;
21810;SDS011;11067;48.788;9.208;2022-07-18T03:06:57;4.22;;;2.40;;
21810;SDS011;11067;48.788;9.208;2022-07-18T03:09:22;3.67;;;2.45;;
21810;SDS011;11067;48.788;9.208;2022-07-18T03:11:52;5.82;;;2.65;;
21810;SDS011;11067;48.788;9.208;2022-07-18T03:14:18;3.47;;;2.42;;
21810;SDS011;11067;48.788;9.208;2022-07-18T03:16:44;3.43;;;2.60;;
21810;SDS011;11067;48.788;9.208;2022-07-18T03:19:09;4.28;;;2.85;;
21810;SDS011;11067;48.788;9.208;2022-07-18T03:21:35;5.87;;;3.10;;
21810;SDS011;11067;48.788;9.208;2022-07-18T03:24:01;5.13;;;2.97;;
21810;SDS011;11067;48.788;9.208;2022-07-18T03:26:27;3.47;;;2.55;;
21810;SDS011;11067;48.788;9.208;2022-07-18T03:28:52;5.27;;;2.73;;
21810;SDS011;11067;48.788;9.208;2022-07-18T03:31:18;4.33;;;2.83;;
21810;SDS011;11067;48.788;9.208;2022-07-18T03:33:43;7.53;;;3.10;;
21810;SDS011;11067;48.788;9.208;2022-07-18T03:36:09;4.17;;;2.80;;
21810;SDS011;11067;48.788;9.208;2022-07-18T03:38:35;5.68;;;2.92;;
21810;SDS011;11067;48.788;9.208;2022-07-18T03:41:08;4.07;;;3.00;;
21810;SDS011;11067;48.788;9.208;2022-07-18T03:43:35;5.70;;;2.70;;
21810;SDS011;11067;48.788;9.208;2022-07-18T03:46:01;3.20;;;2.53;;
21810;SDS011;11067;48.788;9.208;2022-07-18T03:48:27;5.17;;;2.87;;
21810;SDS011;11067;48.788;9.208;2022-07-18T03:50:52;5.15;;;2.97;;
21810;SDS011;11067;48.788;9.208;2022-07-18T03:53:18;3.57;;;2.70;;
21810;SDS011;11067;48.788;9.208;2022-07-18T03:55:44;4.90;;;2.80;;
21810;SDS011;11067;48.788;9.208;2022-07-18T03:58:09;5.03;;;2.58;;
21810;SDS011;11067;48.788;9.208;2022-07-18T04:00:35;3.33;;;2.83;;
21810;SDS011;11067;48.788;9.208;2022-07-18T04:03:00;4.85;;;3.10;;
21810;SDS011;11067;48.788;9.208;2022-07-18T04:05:26;5.53;;;2.63;;
21810;SDS011;11067;48.788;9.208;2022-07-18T04:07:52;4.17;;;3.07;;
21810;SDS011;11067;48.788;9.208;2022-07-18T04:10:17;4.63;;;2.72;;
21810;SDS011;11067;48.788;9.208;2022-07-18T04:12:53;3.35;;;2.90;;
21810;SDS011;11067;48.788;9.208;2022-07-18T04:15:21;5.90;;;3.35;;
21810;SDS011;11067;48.788;9.208;2022-07-18T04:17:47;5.22;;;2.90;;
21810;SDS011;11067;48.788;9.208;2022-07-18T04:20:14;5.20;;;3.20;;
21810;SDS011;11067;48.788;9.208;2022-07-18T04:22:48;4.80;;;2.90;;
21810;SDS011;11067;48.788;9.208;2022-07-18T04:25:15;5.28;;;3.05;;
21810;SDS011;11067;48.788;9.208;2022-07-18T04:27:42;4.25;;;2.95;;
21810;SDS011;11067;48.788;9.208;2022-07-18T04:30:08;3.95;;;3.10;;
21810;SDS011;11067;48.788;9.208;2022-07-18T04:32:34;4.00;;;3.13;;
21810;SDS011;11067;48.788;9.208;2022-07-18T04:34:59;5.10;;;3.20;;
21810;SDS011;11067;48.788;9.208;2022-07-18T04:37:25;3.22;;;2.90;;
21810;SDS011;11067;48.788;9.208;2022-07-18T04:39:50;4.03;;;2.90;;
21810;SDS011;11067;48.788;9.208;2022-07-18T04:42:16;4.77;;;3.20;;
21810;SDS011;11067;48.788;9.208;2022-07-18T04:44:41;3.93;;;3.20;;
21810;SDS011;11067;48.788;9.208;2022-07-18T04:47:07;6.23;;;3.47;;
21810;SDS011;11067;48.788;9.208;2022-07-18T04:49:32;3.38;;;3.05;;
21810;SDS011;11067;48.788;9.208;2022-07-18T04:51:58;4.60;;;3.10;;
21810;SDS011;11067;48.788;9.208;2022-07-18T04:54:24;3.90;;;3.20;;
21810;SDS011;11067;48.788;9.208;2022-07-18T04:56:49;4.53;;;3.05;;
21810;SDS011;11067;48.788;9.208;2022-07-18T04:59:15;5.15;;;3.28;;
21810;SDS011;11067;48.788;9.208;2022-07-18T05:01:41;4.30;;;3.00;;
21810;SDS011;11067;48.788;9.208;2022-07-18T05:04:06;5.03;;;3.67;;
21810;SDS011;11067;48.788;9.208;2022-07-18T05:06:32;7.20;;;3.27;;
21810;SDS011;11067;48.788;9.208;2022-07-18T05:08:57;7.60;;;3.40;;
21810;SDS011;11067;48.788;9.208;2022-07-18T05:11:23;4.37;;;3.23;;
21810;SDS011;11067;48.788;9.208;2022-07-18T05:13:48;6.37;;;3.67;;
21810;SDS011;11067;48.788;9.208;2022-07-18T05:16:14;4.82;;;2.97;;
21810;SDS011;11067;48.788;9.208;2022-07-18T05:18:39;5.40;;;3.67;;
21810;SDS011;11067;48.788;9.208;2022-07-18T05:21:05;7.43;;;3.20;;
21810;SDS011;11067;48.788;9.208;2022-07-18T05:23:30;4.17;;;3.20;;
21810;SDS011;11067;48.788;9.208;2022-07-18T05:25:56;4.13;;;3.23;;
21810;SDS011;11067;48.788;9.208;2022-07-18T05:28:22;6.20;;;3.42;;
21810;SDS011;11067;48.788;9.208;2022-07-18T05:30:48;4.70;;;3.40;;
21810;SDS011;11067;48.788;9.208;2022-07-18T05:33:13;9.43;;;3.40;;
21810;SDS011;11067;48.788;9.208;2022-07-18T05:35:39;4.07;;;3.10;;
21810;SDS011;11067;48.788;9.208;2022-07-18T05:38:04;4.67;;;3.20;;
21810;SDS011;11067;48.788;9.208;2022-07-18T05:40:30;5.83;;;3.40;;
21810;SDS011;11067;48.788;9.208;2022-07-18T05:42:56;4.15;;;2.97;;
21810;SDS011;11067;48.788;9.208;2022-07-18T05:45:24;6.30;;;3.10;;
21810;SDS011;11067;48.788;9.208;2022-07-18T05:47:50;6.47;;;3.40;;
21810;SDS011;11067;48.788;9.208;2022-07-18T05:50:17;7.45;;;3.40;;
21810;SDS011;11067;48.788;9.208;2022-07-18T05:52:42;16.10;;;4.90;;
21810;SDS011;11067;48.788;9.208;2022-07-18T05:55:09;17.67;;;4.78;;
21810;SDS011;11067;48.788;9.208;2022-07-18T05:57:35;30.77;;;7.07;;
21810;SDS011;11067;48.788;9.208;2022-07-18T06:00:02;20.10;;;6.07;;
21810;SDS011;11067;48.788;9.208;2022-07-18T06:02:29;6.03;;;3.53;;
21810;SDS011;11067;48.788;9.208;2022-07-18T06:04:55;8.03;;;3.73;;
21810;SDS011;11067;48.788;9.208;2022-07-18T06:07:20;9.95;;;4.57;;
21810;SDS011;11067;48.788;9.208;2022-07-18T06:09:46;14.37;;;5.67;;
21810;SDS011;11067;48.788;9.208;2022-07-18T06:12:11;10.88;;;4.75;;
21810;SDS011;11067;48.788;9.208;2022-07-18T06:14:37;16.90;;;5.40;;
21810;SDS011;11067;48.788;9.208;2022-07-18T06:17:03;10.18;;;4.90;;
21810;SDS011;11067;48.788;9.208;2022-07-18T06:19:29;15.03;;;6.47;;
21810;SDS011;11067;48.788;9.208;2022-07-18T06:21:54;17.17;;;6.03;;
21810;SDS011;11067;48.788;9.208;2022-07-18T06:24:20;25.47;;;6.63;;
21810;SDS011;11067;48.788;9.208;2022-07-18T06:26:45;9.83;;;4.67;;
21810;SDS011;11067;48.788;9.208;2022-07-18T06:29:11;4.70;;;3.67;;
21810;SDS011;11067;48.788;9.208;2022-07-18T06:31:36;10.07;;;4.10;;
21810;SDS011;11067;48.788;9.208;2022-07-18T06:34:02;10.93;;;4.03;;
21810;SDS011;11067;48.788;9.208;2022-07-18T06:36:45;11.63;;;4.15;;
21810;SDS011;11067;48.788;9.208;2022-07-18T06:39:11;6.43;;;3.72;;
21810;SDS011;11067;48.788;9.208;2022-07-18T06:41:37;13.60;;;4.63;;
21810;SDS011;11067;48.788;9.208;2022-07-18T06:44:04;18.27;;;5.93;;
21810;SDS011;11067;48.788;9.208;2022-07-18T06:46:30;29.50;;;7.78;;
21810;SDS011;11067;48.788;9.208;2022-07-18T06:48:55;13.20;;;4.90;;
21810;SDS011;11067;48.788;9.208;2022-07-18T06:51:21;14.38;;;5.38;;
21810;SDS011;11067;48.788;9.208;2022-07-18T06:53:46;5.37;;;3.87;;
21810;SDS011;11067;48.788;9.208;2022-07-18T06:56:12;7.10;;;3.75;;
21810;SDS011;11067;48.788;9.208;2022-07-18T06:58:37;7.63;;;3.90;;
21810;SDS011;11067;48.788;9.208;2022-07-18T07:01:03;14.33;;;5.27;;
21810;SDS011;11067;48.788;9.208;2022-07-18T07:03:28;9.05;;;3.78;;
21810;SDS011;11067;48.788;9.208;2022-07-18T07:05:54;7.50;;;3.77;;
21810;SDS011;11067;48.788;9.208;2022-07-18T07:08:20;11.17;;;5.00;;
21810;SDS011;11067;48.788;9.208;2022-07-18T07:10:45;17.38;;;5.53;;
21810;SDS011;11067;48.788;9.208;2022-07-18T07:13:11;14.43;;;4.17;;
21810;SDS011;11067;48.788;9.208;2022-07-18T07:15:36;16.83;;;5.47;;
21810;SDS011;11067;48.788;9.208;2022-07-18T07:18:02;8.97;;;4.23;;
21810;SDS011;11067;48.788;9.208;2022-07-18T07:20:28;11.13;;;4.78;;
21810;SDS011;11067;48.788;9.208;2022-07-18T07:22:54;12.40;;;4.97;;
21810;SDS011;11067;48.788;9.208;2022-07-18T07:25:23;7.93;;;3.67;;
21810;SDS011;11067;48.788;9.208;2022-07-18T07:27:51;4.80;;;3.50;;
21810;SDS011;11067;48.788;9.208;2022-07-18T07:30:18;13.73;;;4.78;;
21810;SDS011;11067;48.788;9.208;2022-07-18T07:32:44;6.05;;;3.47;;
21810;SDS011;11067;48.788;9.208;2022-07-18T07:35:12;10.60;;;4.53;;
21810;SDS011;11067;48.788;9.208;2022-07-18T07:37:39;6.38;;;3.63;;
21810;SDS011;11067;48.788;9.208;2022-07-18T07:40:12;8.45;;;3.78;;
21810;SDS011;11067;48.788;9.208;2022-07-18T07:42:38;7.40;;;3.83;;
21810;SDS011;11067;48.788;9.208;2022-07-18T07:45:04;10.35;;;4.28;;
21810;SDS011;11067;48.788;9.208;2022-07-18T07:47:30;14.95;;;4.43;;
21810;SDS011;11067;48.788;9.208;2022-07-18T07:49:56;12.70;;;4.73;;
21810;SDS011;11067;48.788;9.208;2022-07-18T07:52:22;13.45;;;4.70;;
21810;SDS011;11067;48.788;9.208;2022-07-18T07:54:49;9.93;;;3.60;;
21810;SDS011;11067;48.788;9.208;2022-07-18T07:57:17;9.83;;;4.00;;
21810;SDS011;11067;48.788;9.208;2022-07-18T07:59:43;9.87;;;4.27;;
21810;SDS011;11067;48.788;9.208;2022-07-18T08:02:09;8.20;;;3.67;;
21810;SDS011;11067;48.788;9.208;2022-07-18T08:04:34;13.57;;;5.20;;
21810;SDS011;11067;48.788;9.208;2022-07-18T08:07:00;13.00;;;5.53;;
21810;SDS011;11067;48.788;9.208;2022-07-18T08:09:26;15.33;;;4.73;;
21810;SDS011;11067;48.788;9.208;2022-07-18T08:11:51;9.25;;;4.18;;
21810;SDS011;11067;48.788;9.208;2022-07-18T08:14:17;13.27;;;5.13;;
21810;SDS011;11067;48.788;9.208;2022-07-18T08:16:42;11.60;;;4.65;;
21810;SDS011;11067;48.788;9.208;2022-07-18T08:19:08;14.97;;;4.53;;
21810;SDS011;11067;48.788;9.208;2022-07-18T08:21:33;5.30;;;2.93;;
21810;SDS011;11067;48.788;9.208;2022-07-18T08:23:59;8.00;;;3.03;;
21810;SDS011;11067;48.788;9.208;2022-07-18T08:26:25;6.20;;;3.33;;
21810;SDS011;11067;48.788;9.208;2022-07-18T08:28:51;9.75;;;3.92;;
21810;SDS011;11067;48.788;9.208;2022-07-18T08:31:16;6.50;;;3.37;;
21810;SDS011;11067;48.788;9.208;2022-07-18T08:33:43;5.50;;;3.10;;
21810;SDS011;11067;48.788;9.208;2022-07-18T08:36:09;7.05;;;3.10;;
21810;SDS011;11067;48.788;9.208;2022-07-18T08:38:35;8.93;;;3.20;;
21810;SDS011;11067;48.788;9.208;2022-07-18T08:41:01;6.22;;;2.90;;
21810;SDS011;11067;48.788;9.208;2022-07-18T08:43:28;6.40;;;2.78;;
21810;SDS011;11067;48.788;9.208;2022-07-18T08:45:54;7.57;;;3.03;;
21810;SDS011;11067;48.788;9.208;2022-07-18T08:48:22;5.23;;;2.70;;
21810;SDS011;11067;48.788;9.208;2022-07-18T08:50:48;12.50;;;3.17;;
21810;SDS011;11067;48.788;9.208;2022-07-18T08:53:15;6.83;;;3.73;;
21810;SDS011;11067;48.788;9.208;2022-07-18T08:55:41;4.83;;;2.80;;
21810;SDS011;11067;48.788;9.208;2022-07-18T08:58:07;11.48;;;3.17;;
21810;SDS011;11067;48.788;9.208;2022-07-18T09:00:35;6.63;;;2.60;;
21810;SDS011;11067;48.788;9.208;2022-07-18T09:03:01;4.95;;;2.83;;
21810;SDS011;11067;48.788;9.208;2022-07-18T09:05:28;3.42;;;2.55;;
21810;SDS011;11067;48.788;9.208;2022-07-18T09:08:07;4.47;;;3.00;;
21810;SDS011;11067;48.788;9.208;2022-07-18T09:10:40;4.72;;;3.00;;
21810;SDS011;11067;48.788;9.208;2022-07-18T09:13:12;9.33;;;3.00;;
21810;SDS011;11067;48.788;9.208;2022-07-18T09:15:55;6.13;;;2.63;;
21810;SDS011;11067;48.788;9.208;2022-07-18T09:18:32;11.30;;;2.60;;
21810;SDS011;11067;48.788;9.208;2022-07-18T09:21:19;3.50;;;2.40;;
21810;SDS011;11067;48.788;9.208;2022-07-18T09:23:47;3.22;;;2.10;;
21810;SDS011;11067;48.788;9.208;2022-07-18T09:26:33;2.13;;;1.93;;
21810;SDS011;11067;48.788;9.208;2022-07-18T09:29:07;4.47;;;2.55;;
21810;SDS011;11067;48.788;9.208;2022-07-18T09:31:33;6.90;;;2.60;;
21810;SDS011;11067;48.788;9.208;2022-07-18T09:34:03;5.25;;;2.58;;
21810;SDS011;11067;48.788;9.208;2022-07-18T09:36:29;5.35;;;2.38;;
21810;SDS011;11067;48.788;9.208;2022-07-18T09:38:58;4.10;;;2.42;;
21810;SDS011;11067;48.788;9.208;2022-07-18T09:41:24;4.22;;;2.60;;
21810;SDS011;11067;48.788;9.208;2022-07-18T09:43:52;4.77;;;2.80;;
21810;SDS011;11067;48.788;9.208;2022-07-18T09:46:17;3.78;;;2.22;;
21810;SDS011;11067;48.788;9.208;2022-07-18T09:48:43;2.10;;;1.90;;
21810;SDS011;11067;48.788;9.208;2022-07-18T09:51:09;4.43;;;2.13;;
21810;SDS011;11067;48.788;9.208;2022-07-18T09:56:02;7.27;;;2.60;;
21810;SDS011;11067;48.788;9.208;2022-07-18T09:58:33;3.23;;;2.30;;
21810;SDS011;11067;48.788;9.208;2022-07-18T10:01:01;5.07;;;2.38;;
21810;SDS011;11067;48.788;9.208;2022-07-18T10:03:28;6.18;;;2.45;;
21810;SDS011;11067;48.788;9.208;2022-07-18T10:05:55;2.85;;;2.10;;
21810;SDS011;11067;48.788;9.208;2022-07-18T10:08:25;2.10;;;1.90;;
21810;SDS011;11067;48.788;9.208;2022-07-18T10:10:53;3.00;;;2.10;;
21810;SDS011;11067;48.788;9.208;2022-07-18T10:13:21;3.78;;;2.00;;
21810;SDS011;11067;48.788;9.208;2022-07-18T10:15:48;4.20;;;2.20;;
21810;SDS011;11067;48.788;9.208;2022-07-18T10:18:19;3.50;;;2.10;;
21810;SDS011;11067;48.788;9.208;2022-07-18T10:26:14;2.55;;;2.05;;
21810;SDS011;11067;48.788;9.208;2022-07-18T10:36:32;2.23;;;2.03;;
21810;SDS011;11067;48.788;9.208;2022-07-18T10:39:09;3.08;;;2.10;;
21810;SDS011;11067;48.788;9.208;2022-07-18T10:57:31;3.70;;;2.08;;
21810;SDS011;11067;48.788;9.208;2022-07-18T11:00:07;2.65;;;2.20;;
21810;SDS011;11067;48.788;9.208;2022-07-18T11:02:37;2.22;;;1.85;;
21810;SDS011;11067;48.788;9.208;2022-07-18T11:16:16;2.40;;;1.90;;
21810;SDS011;11067;48.788;9.208;2022-07-18T11:23:43;3.10;;;1.70;;
21810;SDS011;11067;48.788;9.208;2022-07-18T11:26:15;2.10;;;1.50;;
21810;SDS011;11067;48.788;9.208;2022-07-18T11:28:48;2.75;;;1.73;;
21810;SDS011;11067;48.788;9.208;2022-07-18T11:31:21;2.03;;;1.67;;
21810;SDS011;11067;48.788;9.208;2022-07-18T11:33:48;2.33;;;1.70;;
21810;SDS011;11067;48.788;9.208;2022-07-18T11:36:15;1.80;;;1.50;;
21810;SDS011;11067;48.788;9.208;2022-07-18T11:38:46;4.83;;;2.10;;
21810;SDS011;11067;48.788;9.208;2022-07-18T11:41:14;6.67;;;2.27;;
21810;SDS011;11067;48.788;9.208;2022-07-18T11:43:40;1.50;;;1.40;;
21810;SDS011;11067;48.788;9.208;2022-07-18T11:46:10;1.65;;;1.30;;
21810;SDS011;11067;48.788;9.208;2022-07-18T11:48:37;2.30;;;1.57;;
21810;SDS011;11067;48.788;9.208;2022-07-18T11:51:09;3.17;;;1.70;;
21810;SDS011;11067;48.788;9.208;2022-07-18T11:53:36;2.40;;;1.65;;
21810;SDS011;11067;48.788;9.208;2022-07-18T11:56:06;4.07;;;1.70;;
21810;SDS011;11067;48.788;9.208;2022-07-18T11:58:35;4.78;;;1.50;;
21810;SDS011;11067;48.788;9.208;2022-07-18T12:01:02;2.60;;;1.70;;
21810;SDS011;11067;48.788;9.208;2022-07-18T12:03:28;2.15;;;1.70;;
21810;SDS011;11067;48.788;9.208;2022-07-18T12:05:54;2.70;;;1.90;;
21810;SDS011;11067;48.788;9.208;2022-07-18T12:08:32;5.13;;;1.90;;
21810;SDS011;11067;48.788;9.208;2022-07-18T12:11:06;2.65;;;1.90;;
21810;SDS011;11067;48.788;9.208;2022-07-18T12:19:20;2.78;;;1.60;;
21810;SDS011;11067;48.788;9.208;2022-07-18T12:24:23;2.00;;;1.80;;
21810;SDS011;11067;48.788;9.208;2022-07-18T12:32:41;3.42;;;1.67;;
21810;SDS011;11067;48.788;9.208;2022-07-18T12:35:09;2.70;;;1.70;;
21810;SDS011;11067;48.788;9.208;2022-07-18T12:37:38;4.10;;;1.83;;
21810;SDS011;11067;48.788;9.208;2022-07-18T12:40:08;2.33;;;1.90;;
21810;SDS011;11067;48.788;9.208;2022-07-18T12:42:36;2.38;;;1.80;;
21810;SDS011;11067;48.788;9.208;2022-07-18T12:45:04;2.30;;;1.80;;
21810;SDS011;11067;48.788;9.208;2022-07-18T12:47:30;4.57;;;1.85;;
21810;SDS011;11067;48.788;9.208;2022-07-18T12:49:56;3.75;;;1.77;;
21810;SDS011;11067;48.788;9.208;2022-07-18T12:52:22;2.03;;;1.75;;
21810;SDS011;11067;48.788;9.208;2022-07-18T12:54:48;3.92;;;2.00;;
21810;SDS011;11067;48.788;9.208;2022-07-18T12:57:14;4.07;;;1.90;;
21810;SDS011;11067;48.788;9.208;2022-07-18T12:59:40;8.23;;;2.03;;
21810;SDS011;11067;48.788;9.208;2022-07-18T13:02:05;2.20;;;2.00;;
21810;SDS011;11067;48.788;9.208;2022-07-18T13:04:31;2.60;;;1.80;;
21810;SDS011;11067;48.788;9.208;2022-07-18T13:06:57;3.85;;;1.85;;
21810;SDS011;11067;48.788;9.208;2022-07-18T13:09:22;2.73;;;1.93;;
21810;SDS011;11067;48.788;9.208;2022-07-18T13:11:48;2.47;;;1.80;;
21810;SDS011;11067;48.788;9.208;2022-07-18T13:14:14;2.40;;;2.10;;
21810;SDS011;11067;48.788;9.208;2022-07-18T13:16:41;2.85;;;1.77;;
21810;SDS011;11067;48.788;9.208;2022-07-18T13:19:10;5.13;;;4.63;;
21810;SDS011;11067;48.788;9.208;2022-07-18T13:21:36;1.80;;;1.70;;
21810;SDS011;11067;48.788;9.208;2022-07-18T13:24:02;1.80;;;1.70;;
21810;SDS011;11067;48.788;9.208;2022-07-18T13:26:27;2.35;;;1.80;;
21810;SDS011;11067;48.788;9.208;2022-07-18T13:28:53;3.47;;;2.20;;
21810;SDS011;11067;48.788;9.208;2022-07-18T13:31:19;2.30;;;2.10;;
21810;SDS011;11067;48.788;9.208;2022-07-18T13:33:45;3.50;;;2.03;;
21810;SDS011;11067;48.788;9.208;2022-07-18T13:36:12;3.03;;;2.13;;
21810;SDS011;11067;48.788;9.208;2022-07-18T13:38:39;2.30;;;2.10;;
21810;SDS011;11067;48.788;9.208;2022-07-18T13:41:04;4.78;;;2.20;;
21810;SDS011;11067;48.788;9.208;2022-07-18T13:43:30;3.70;;;2.37;;
21810;SDS011;11067;48.788;9.208;2022-07-18T13:45:56;4.13;;;2.10;;
21810;SDS011;11067;48.788;9.208;2022-07-18T13:48:21;5.90;;;2.13;;
21810;SDS011;11067;48.788;9.208;2022-07-18T13:50:47;2.70;;;2.00;;
21810;SDS011;11067;48.788;9.208;2022-07-18T13:53:12;3.10;;;1.90;;
21810;SDS011;11067;48.788;9.208;2022-07-18T13:55:38;3.50;;;2.13;;
21810;SDS011;11067;48.788;9.208;2022-07-18T13:58:03;3.20;;;2.00;;
21810;SDS011;11067;48.788;9.208;2022-07-18T14:00:29;2.88;;;1.95;;
21810;SDS011;11067;48.788;9.208;2022-07-18T14:02:54;3.50;;;1.90;;
21810;SDS011;11067;48.788;9.208;2022-07-18T14:05:20;1.97;;;1.80;;
21810;SDS011;11067;48.788;9.208;2022-07-18T14:07:46;4.10;;;1.73;;
21810;SDS011;11067;48.788;9.208;2022-07-18T14:10:14;3.85;;;2.20;;
21810;SDS011;11067;48.788;9.208;2022-07-18T14:12:40;3.42;;;2.10;;
21810;SDS011;11067;48.788;9.208;2022-07-18T14:15:07;3.33;;;2.05;;
21810;SDS011;11067;48.788;9.208;2022-07-18T14:17:33;6.15;;;2.17;;
21810;SDS011;11067;48.788;9.208;2022-07-18T14:19:59;5.03;;;2.00;;
21810;SDS011;11067;48.788;9.208;2022-07-18T14:22:25;2.65;;;2.08;;
21810;SDS011;11067;48.788;9.208;2022-07-18T14:24:50;4.03;;;2.25;;
21810;SDS011;11067;48.788;9.208;2022-07-18T14:27:16;2.90;;;2.40;;
21810;SDS011;11067;48.788;9.208;2022-07-18T14:29:41;2.83;;;2.00;;
21810;SDS011;11067;48.788;9.208;2022-07-18T14:32:08;5.20;;;2.33;;
21810;SDS011;11067;48.788;9.208;2022-07-18T14:34:34;4.63;;;2.70;;
21810;SDS011;11067;48.788;9.208;2022-07-18T14:36:59;3.20;;;1.92;;
21810;SDS011;11067;48.788;9.208;2022-07-18T14:39:25;4.70;;;2.40;;
21810;SDS011;11067;48.788;9.208;2022-07-18T14:41:51;2.53;;;2.10;;
21810;SDS011;11067;48.788;9.208;2022-07-18T14:44:17;5.50;;;2.20;;
21810;SDS011;11067;48.788;9.208;2022-07-18T14:46:43;5.22;;;2.50;;
21810;SDS011;11067;48.788;9.208;2022-07-18T14:49:08;3.37;;;2.27;;
21810;SDS011;11067;48.788;9.208;2022-07-18T14:51:34;3.10;;;2.10;;
21810;SDS011;11067;48.788;9.208;2022-07-18T14:53:59;2.40;;;2.20;;
21810;SDS011;11067;48.788;9.208;2022-07-18T14:56:25;3.42;;;2.45;;
21810;SDS011;11067;48.788;9.208;2022-07-18T14:58:51;2.90;;;2.10;;
21810;SDS011;11067;48.788;9.208;2022-07-18T15:01:16;4.32;;;2.50;;
21810;SDS011;11067;48.788;9.208;2022-07-18T15:03:44;3.50;;;2.08;;
21810;SDS011;11067;48.788;9.208;2022-07-18T15:06:10;2.15;;;1.80;;
21810;SDS011;11067;48.788;9.208;2022-07-18T15:08:37;6.93;;;2.83;;
21810;SDS011;11067;48.788;9.208;2022-07-18T15:11:02;3.13;;;1.83;;
21810;SDS011;11067;48.788;9.208;2022-07-18T15:13:28;2.33;;;1.50;;
21810;SDS011;11067;48.788;9.208;2022-07-18T15:15:53;2.45;;;2.10;;
21810;SDS011;11067;48.788;9.208;2022-07-18T15:18:19;2.05;;;1.85;;
21810;SDS011;11067;48.788;9.208;2022-07-18T15:20:44;2.65;;;1.90;;
21810;SDS011;11067;48.788;9.208;2022-07-18T15:23:10;3.70;;;2.30;;
21810;SDS011;11067;48.788;9.208;2022-07-18T15:25:36;5.60;;;2.08;;
21810;SDS011;11067;48.788;9.208;2022-07-18T15:28:02;3.67;;;2.03;;
21810;SDS011;11067;48.788;9.208;2022-07-18T15:30:27;1.80;;;1.70;;
21810;SDS011;11067;48.788;9.208;2022-07-18T15:32:53;5.47;;;1.73;;
21810;SDS011;11067;48.788;9.208;2022-07-18T15:35:19;3.42;;;1.85;;
21810;SDS011;11067;48.788;9.208;2022-07-18T15:37:44;4.83;;;1.80;;
21810;SDS011;11067;48.788;9.208;2022-07-18T15:40:10;8.10;;;2.00;;
21810;SDS011;11067;48.788;9.208;2022-07-18T15:42:35;3.72;;;1.83;;
21810;SDS011;11067;48.788;9.208;2022-07-18T15:45:01;2.80;;;1.83;;